LFRBLFRQ

Guest
Details From LFRB - Brest Bretagne
To LFRQ - Quimper Pluguffan
Flight Number -
Tags generated
Created
Modified
Stats Distance 30 nm / 56 km
Max Altitude 0 ft / 0 m
Waypoints 2
Social Downloads 0
Likes 0
Share VATSIM

Download

Looking for another format? Having issues loading an existing format? Contact us
Advertisement - Login to hide

Notes

Basic altitude profile: - Ascent Rate: 700ft/min - Ascent Speed: 100kts - Cruise Altitude: 4000ft - Cruise Speed: 120kts - Descent Rate: 400ft/min - Descent Speed: 80kts Options: - Use NATs: no - Use PACOTS: no - Use low airways: yes - Use high airways: no

Route

LFRB LFRQ

ID Type Via Altitude Latitude Longitude Leg Dist Tot Dist Heading (true) Name
O LFRB APT - 0 ft / 0 m 48.44938˚ -4.41823˚ - 0 nm - Brest Bretagne
O LFRQ APT - 0 ft / 0 m 47.97278˚ -4.17156˚ 30 nm 30 nm 161° / 161° Quimper Pluguffan

Altitude Profile

Advertisement - Login to hide

LFRB

Details ICAO LFRB (BES)
Name Brest Bretagne
Region France
Timezone Europe/Paris (UTC+2.0)
Stats Elevation 325 ft / 99 m (AMSL)
Location 48.449376° -4.418232°
Runways 2
Magnetic Variation 1.514° W

METAR

LFRB 220500Z AUTO 03001KT 2800 BR NSC 09/09 Q1015 TEMPO 0300 FG VV///

Decode

TAF

TAF LFRB 212300Z 2200/2306 01003KT 2000 BR NSC TEMPO 2200/2208 0300 FG VV/// BECMG 2208/2210 9999 NSW SCT030 TEMPO 2300/2306 4000 MIFG

Decode

Departure Runways

ID Width Length Bearing (true) Bearing (mag) Surface Threshold Offset Overrun Length
07L 62 ft / 19 m 2,518 ft / 768 m 71.21° 72.72° Asphalt 131 ft / 40 m 0 ft / 0 m
07R 148 ft / 45 m 10,153 ft / 3,095 m 71.16° 72.67° Asphalt 0 ft / 0 m 0 ft / 0 m
25L 148 ft / 45 m 10,153 ft / 3,095 m 251.19° 252.70° Asphalt 984 ft / 300 m 0 ft / 0 m
25R 62 ft / 19 m 2,518 ft / 768 m 251.22° 252.73° Asphalt 112 ft / 34 m 0 ft / 0 m

LFRQ

Details ICAO LFRQ (UIP)
Name Quimper Pluguffan
Region France
Timezone Europe/Paris (UTC+2.0)
Stats Elevation 297 ft / 91 m (AMSL)
Location 47.972777° -4.171559°
Runways 2
Magnetic Variation 1.374° W

METAR

LFRQ 220500Z AUTO 03003KT 7000 NSC 11/09 Q1015

Decode

TAF

TAF LFRQ 211700Z 2118/2218 29010KT CAVOK BECMG 2118/2120 02010KT PROB30 TEMPO 2203/2207 3000 BR

Decode

Destination Runways

ID Width Length Bearing (true) Bearing (mag) Surface Threshold Offset Overrun Length
04 148 ft / 45 m 3,632 ft / 1,107 m 32.51° 33.88° Asphalt 1,148 ft / 350 m 0 ft / 0 m
10 148 ft / 45 m 7,035 ft / 2,144 m 93.49° 94.86° Asphalt 344 ft / 105 m 197 ft / 60 m
22 148 ft / 45 m 3,632 ft / 1,107 m 212.52° 213.89° Asphalt 0 ft / 0 m 0 ft / 0 m
28 148 ft / 45 m 7,035 ft / 2,144 m 273.51° 274.88° Asphalt 0 ft / 0 m 0 ft / 0 m

Approach Navaids

Runway Type Ident Frequency Range Bearing (true) Bearing (mag) Slope Elevation
28 Localiser QR 110.30 MHz 18 nm / 33 km 273.51° 274.89° - 295 ft / 90 m (AMSL)
28 Glidescope QR 110.30 MHz 10 nm / 19 km 273.50° 274.88° 3.00° 295 ft / 90 m (AMSL)
28 DME QR 110.30 MHz 18 nm / 33 km - - - 332 ft / 101 m (AMSL)

Popular Alternatives